sensor_id;sensor_type;location;lat;lon;timestamp;temperature;humidity
37594;DHT22;23441;50.856;6.076;2022-11-02T00:00:57;12.50;99.90
37594;DHT22;23441;50.856;6.076;2022-11-02T00:03:26;12.50;99.90
37594;DHT22;23441;50.856;6.076;2022-11-02T00:05:53;12.40;99.90
37594;DHT22;23441;50.856;6.076;2022-11-02T00:08:18;12.40;99.90
37594;DHT22;23441;50.856;6.076;2022-11-02T00:10:44;12.40;99.90
37594;DHT22;23441;50.856;6.076;2022-11-02T00:13:10;12.40;99.90
37594;DHT22;23441;50.856;6.076;2022-11-02T00:15:36;12.40;99.90
37594;DHT22;23441;50.856;6.076;2022-11-02T00:18:08;12.40;99.90
37594;DHT22;23441;50.856;6.076;2022-11-02T00:20:36;12.40;99.90
37594;DHT22;23441;50.856;6.076;2022-11-02T00:23:04;12.50;99.90
37594;DHT22;23441;50.856;6.076;2022-11-02T00:25:32;12.50;99.90
37594;DHT22;23441;50.856;6.076;2022-11-02T00:27:58;12.50;99.90
37594;DHT22;23441;50.856;6.076;2022-11-02T00:30:24;12.50;99.90
37594;DHT22;23441;50.856;6.076;2022-11-02T00:32:50;12.40;99.90
37594;DHT22;23441;50.856;6.076;2022-11-02T00:35:16;12.40;99.90
37594;DHT22;23441;50.856;6.076;2022-11-02T00:37:42;12.40;99.90
37594;DHT22;23441;50.856;6.076;2022-11-02T00:40:08;12.40;99.90
37594;DHT22;23441;50.856;6.076;2022-11-02T00:42:33;12.40;99.90
37594;DHT22;23441;50.856;6.076;2022-11-02T00:44:59;12.40;99.90
37594;DHT22;23441;50.856;6.076;2022-11-02T00:47:25;12.50;99.90
37594;DHT22;23441;50.856;6.076;2022-11-02T00:49:51;12.60;99.90
37594;DHT22;23441;50.856;6.076;2022-11-02T00:52:16;12.50;99.90
37594;DHT22;23441;50.856;6.076;2022-11-02T00:54:42;12.50;99.90
37594;DHT22;23441;50.856;6.076;2022-11-02T00:57:08;12.50;99.90
37594;DHT22;23441;50.856;6.076;2022-11-02T00:59:34;12.50;99.90
37594;DHT22;23441;50.856;6.076;2022-11-02T01:02:00;12.50;99.90
37594;DHT22;23441;50.856;6.076;2022-11-02T01:04:25;12.50;99.90
37594;DHT22;23441;50.856;6.076;2022-11-02T01:06:51;12.50;99.90
37594;DHT22;23441;50.856;6.076;2022-11-02T01:09:17;12.50;99.90
37594;DHT22;23441;50.856;6.076;2022-11-02T01:11:43;12.60;99.90
37594;DHT22;23441;50.856;6.076;2022-11-02T01:14:09;12.70;99.90
37594;DHT22;23441;50.856;6.076;2022-11-02T01:16:37;12.60;99.90
37594;DHT22;23441;50.856;6.076;2022-11-02T01:19:02;12.50;99.90
37594;DHT22;23441;50.856;6.076;2022-11-02T01:21:28;12.50;99.90
37594;DHT22;23441;50.856;6.076;2022-11-02T01:23:54;12.50;99.90
37594;DHT22;23441;50.856;6.076;2022-11-02T01:26:20;12.50;99.90
37594;DHT22;23441;50.856;6.076;2022-11-02T01:28:45;12.50;99.90
37594;DHT22;23441;50.856;6.076;2022-11-02T01:31:11;12.50;99.90
37594;DHT22;23441;50.856;6.076;2022-11-02T01:33:42;12.50;99.90
37594;DHT22;23441;50.856;6.076;2022-11-02T01:36:08;12.50;99.90
37594;DHT22;23441;50.856;6.076;2022-11-02T01:38:34;12.50;99.90
37594;DHT22;23441;50.856;6.076;2022-11-02T01:41:00;12.40;99.90
37594;DHT22;23441;50.856;6.076;2022-11-02T01:43:31;12.50;99.90
37594;DHT22;23441;50.856;6.076;2022-11-02T01:46:14;12.40;99.90
37594;DHT22;23441;50.856;6.076;2022-11-02T01:51:35;12.40;99.90
37594;DHT22;23441;50.856;6.076;2022-11-02T01:54:11;12.40;99.90
37594;DHT22;23441;50.856;6.076;2022-11-02T01:56:40;12.40;99.90
37594;DHT22;23441;50.856;6.076;2022-11-02T01:59:11;12.40;99.90
37594;DHT22;23441;50.856;6.076;2022-11-02T02:01:38;12.40;99.90
37594;DHT22;23441;50.856;6.076;2022-11-02T02:04:04;12.30;99.90
37594;DHT22;23441;50.856;6.076;2022-11-02T02:06:31;12.40;99.90
37594;DHT22;23441;50.856;6.076;2022-11-02T02:09:02;12.40;99.90
37594;DHT22;23441;50.856;6.076;2022-11-02T02:11:35;12.30;99.90
37594;DHT22;23441;50.856;6.076;2022-11-02T02:14:11;12.30;99.90
37594;DHT22;23441;50.856;6.076;2022-11-02T02:19:46;12.40;99.90
37594;DHT22;23441;50.856;6.076;2022-11-02T02:25:24;12.40;99.90
37594;DHT22;23441;50.856;6.076;2022-11-02T02:33:47;12.20;99.90
37594;DHT22;23441;50.856;6.076;2022-11-02T02:36:24;12.20;99.90
37594;DHT22;23441;50.856;6.076;2022-11-02T02:42:04;12.10;99.90
37594;DHT22;23441;50.856;6.076;2022-11-02T02:44:35;12.20;99.90
37594;DHT22;23441;50.856;6.076;2022-11-02T02:47:05;12.10;99.90
37594;DHT22;23441;50.856;6.076;2022-11-02T02:49:42;12.30;99.90
37594;DHT22;23441;50.856;6.076;2022-11-02T02:52:10;12.30;99.90
37594;DHT22;23441;50.856;6.076;2022-11-02T02:54:41;12.30;99.90
37594;DHT22;23441;50.856;6.076;2022-11-02T02:57:19;12.40;99.90
37594;DHT22;23441;50.856;6.076;2022-11-02T02:59:47;12.30;99.90
37594;DHT22;23441;50.856;6.076;2022-11-02T03:02:23;12.30;99.90
37594;DHT22;23441;50.856;6.076;2022-11-02T03:04:49;12.20;99.90
37594;DHT22;23441;50.856;6.076;2022-11-02T03:07:19;12.10;99.90
37594;DHT22;23441;50.856;6.076;2022-11-02T03:17:19;11.90;99.90
37594;DHT22;23441;50.856;6.076;2022-11-02T03:22:57;11.80;99.90
37594;DHT22;23441;50.856;6.076;2022-11-02T03:31:07;11.80;99.90
37594;DHT22;23441;50.856;6.076;2022-11-02T03:33:53;11.80;99.90
37594;DHT22;23441;50.856;6.076;2022-11-02T03:36:22;11.80;99.90
37594;DHT22;23441;50.856;6.076;2022-11-02T03:39:19;11.80;99.90
37594;DHT22;23441;50.856;6.076;2022-11-02T03:41:47;11.70;99.90
37594;DHT22;23441;50.856;6.076;2022-11-02T03:44:18;11.70;99.90
37594;DHT22;23441;50.856;6.076;2022-11-02T03:46:50;11.60;99.90
37594;DHT22;23441;50.856;6.076;2022-11-02T03:49:18;11.60;99.90
37594;DHT22;23441;50.856;6.076;2022-11-02T03:51:45;11.60;99.90
37594;DHT22;23441;50.856;6.076;2022-11-02T03:57:01;11.50;99.90
37594;DHT22;23441;50.856;6.076;2022-11-02T03:59:32;11.50;99.90
37594;DHT22;23441;50.856;6.076;2022-11-02T04:01:58;11.50;99.90
37594;DHT22;23441;50.856;6.076;2022-11-02T04:04:25;11.50;99.90
37594;DHT22;23441;50.856;6.076;2022-11-02T04:06:51;11.60;99.90
37594;DHT22;23441;50.856;6.076;2022-11-02T04:09:18;11.60;99.90
37594;DHT22;23441;50.856;6.076;2022-11-02T04:11:43;11.60;99.90
37594;DHT22;23441;50.856;6.076;2022-11-02T04:14:28;11.50;99.90
37594;DHT22;23441;50.856;6.076;2022-11-02T04:17:04;11.60;99.90
37594;DHT22;23441;50.856;6.076;2022-11-02T04:19:48;11.60;99.90
37594;DHT22;23441;50.856;6.076;2022-11-02T04:22:14;11.60;99.90
37594;DHT22;23441;50.856;6.076;2022-11-02T04:24:58;11.50;99.90
37594;DHT22;23441;50.856;6.076;2022-11-02T04:27:52;11.50;99.90
37594;DHT22;23441;50.856;6.076;2022-11-02T04:30:22;11.50;99.90
37594;DHT22;23441;50.856;6.076;2022-11-02T04:32:49;11.50;99.90
37594;DHT22;23441;50.856;6.076;2022-11-02T04:35:34;11.50;99.90
37594;DHT22;23441;50.856;6.076;2022-11-02T04:38:01;11.50;99.90
37594;DHT22;23441;50.856;6.076;2022-11-02T04:40:45;11.60;99.90
37594;DHT22;23441;50.856;6.076;2022-11-02T04:43:11;11.60;99.90
37594;DHT22;23441;50.856;6.076;2022-11-02T04:45:37;11.50;99.90
37594;DHT22;23441;50.856;6.076;2022-11-02T04:48:05;11.50;99.90
37594;DHT22;23441;50.856;6.076;2022-11-02T04:50:31;11.50;99.90
37594;DHT22;23441;50.856;6.076;2022-11-02T04:52:58;11.50;99.90
37594;DHT22;23441;50.856;6.076;2022-11-02T04:55:25;11.50;99.90
37594;DHT22;23441;50.856;6.076;2022-11-02T04:57:51;11.50;99.90
37594;DHT22;23441;50.856;6.076;2022-11-02T05:00:19;11.50;99.90
37594;DHT22;23441;50.856;6.076;2022-11-02T05:02:46;11.40;99.90
37594;DHT22;23441;50.856;6.076;2022-11-02T05:05:13;11.40;99.90
37594;DHT22;23441;50.856;6.076;2022-11-02T05:07:39;11.30;99.90
37594;DHT22;23441;50.856;6.076;2022-11-02T05:10:05;11.30;99.90
37594;DHT22;23441;50.856;6.076;2022-11-02T05:12:31;11.30;99.90
37594;DHT22;23441;50.856;6.076;2022-11-02T05:14:57;11.30;99.90
37594;DHT22;23441;50.856;6.076;2022-11-02T05:17:22;11.40;99.90
37594;DHT22;23441;50.856;6.076;2022-11-02T05:19:48;11.30;99.90
37594;DHT22;23441;50.856;6.076;2022-11-02T05:22:14;11.40;99.90
37594;DHT22;23441;50.856;6.076;2022-11-02T05:24:40;11.30;99.90
37594;DHT22;23441;50.856;6.076;2022-11-02T05:27:05;11.30;99.90
37594;DHT22;23441;50.856;6.076;2022-11-02T05:29:31;11.30;99.90
37594;DHT22;23441;50.856;6.076;2022-11-02T05:31:57;11.40;99.90
37594;DHT22;23441;50.856;6.076;2022-11-02T05:34:23;11.30;99.90
37594;DHT22;23441;50.856;6.076;2022-11-02T05:36:48;11.30;99.90
37594;DHT22;23441;50.856;6.076;2022-11-02T05:39:14;11.30;99.90
37594;DHT22;23441;50.856;6.076;2022-11-02T05:41:40;11.20;99.90
37594;DHT22;23441;50.856;6.076;2022-11-02T05:44:06;11.10;99.90
37594;DHT22;23441;50.856;6.076;2022-11-02T05:46:32;11.10;99.90
37594;DHT22;23441;50.856;6.076;2022-11-02T05:48:58;11.20;99.90
37594;DHT22;23441;50.856;6.076;2022-11-02T05:51:23;11.20;99.90
37594;DHT22;23441;50.856;6.076;2022-11-02T05:53:49;11.20;99.90
37594;DHT22;23441;50.856;6.076;2022-11-02T05:56:15;11.20;99.90
37594;DHT22;23441;50.856;6.076;2022-11-02T05:58:41;11.20;99.90
37594;DHT22;23441;50.856;6.076;2022-11-02T06:01:07;11.10;99.90
37594;DHT22;23441;50.856;6.076;2022-11-02T06:03:34;11.10;99.90
37594;DHT22;23441;50.856;6.076;2022-11-02T06:06:05;11.10;99.90
37594;DHT22;23441;50.856;6.076;2022-11-02T06:08:33;11.00;99.90
37594;DHT22;23441;50.856;6.076;2022-11-02T06:11:19;11.10;99.90
37594;DHT22;23441;50.856;6.076;2022-11-02T06:13:48;11.00;99.90
37594;DHT22;23441;50.856;6.076;2022-11-02T06:16:15;11.00;99.90
37594;DHT22;23441;50.856;6.076;2022-11-02T06:18:41;11.00;99.90
37594;DHT22;23441;50.856;6.076;2022-11-02T06:21:08;11.00;99.90
37594;DHT22;23441;50.856;6.076;2022-11-02T06:23:34;10.90;99.90
37594;DHT22;23441;50.856;6.076;2022-11-02T06:26:00;10.90;99.90
37594;DHT22;23441;50.856;6.076;2022-11-02T06:28:27;10.90;99.90
37594;DHT22;23441;50.856;6.076;2022-11-02T06:30:53;10.90;99.90
37594;DHT22;23441;50.856;6.076;2022-11-02T06:33:19;10.80;99.90
37594;DHT22;23441;50.856;6.076;2022-11-02T06:35:46;10.80;99.90
37594;DHT22;23441;50.856;6.076;2022-11-02T06:38:12;10.70;99.90
37594;DHT22;23441;50.856;6.076;2022-11-02T06:40:39;10.80;99.90
37594;DHT22;23441;50.856;6.076;2022-11-02T06:43:04;10.80;99.90
37594;DHT22;23441;50.856;6.076;2022-11-02T06:45:30;10.80;99.90
37594;DHT22;23441;50.856;6.076;2022-11-02T06:47:56;10.80;99.90
37594;DHT22;23441;50.856;6.076;2022-11-02T06:50:21;10.80;99.90
37594;DHT22;23441;50.856;6.076;2022-11-02T06:52:49;10.80;99.90
37594;DHT22;23441;50.856;6.076;2022-11-02T06:55:16;10.80;99.90
37594;DHT22;23441;50.856;6.076;2022-11-02T06:57:43;10.80;99.90
37594;DHT22;23441;50.856;6.076;2022-11-02T07:00:12;10.80;99.90
37594;DHT22;23441;50.856;6.076;2022-11-02T07:02:39;10.80;99.90
37594;DHT22;23441;50.856;6.076;2022-11-02T07:05:05;10.70;99.90
37594;DHT22;23441;50.856;6.076;2022-11-02T07:07:31;10.70;99.90
37594;DHT22;23441;50.856;6.076;2022-11-02T07:09:56;10.70;99.90
37594;DHT22;23441;50.856;6.076;2022-11-02T07:12:22;10.70;99.90
37594;DHT22;23441;50.856;6.076;2022-11-02T07:14:48;10.70;99.90
37594;DHT22;23441;50.856;6.076;2022-11-02T07:17:13;10.70;99.90
37594;DHT22;23441;50.856;6.076;2022-11-02T07:19:39;10.70;99.90
37594;DHT22;23441;50.856;6.076;2022-11-02T07:22:05;10.70;99.90
37594;DHT22;23441;50.856;6.076;2022-11-02T07:24:31;10.70;99.90
37594;DHT22;23441;50.856;6.076;2022-11-02T07:26:56;10.70;99.90
37594;DHT22;23441;50.856;6.076;2022-11-02T07:29:22;10.70;99.90
37594;DHT22;23441;50.856;6.076;2022-11-02T07:31:48;10.70;99.90
37594;DHT22;23441;50.856;6.076;2022-11-02T07:34:14;10.70;99.90
37594;DHT22;23441;50.856;6.076;2022-11-02T07:36:40;10.80;99.90
37594;DHT22;23441;50.856;6.076;2022-11-02T07:39:06;10.90;99.90
37594;DHT22;23441;50.856;6.076;2022-11-02T07:41:32;10.80;99.90
37594;DHT22;23441;50.856;6.076;2022-11-02T07:43:58;10.90;99.90
37594;DHT22;23441;50.856;6.076;2022-11-02T07:46:24;11.00;99.90
37594;DHT22;23441;50.856;6.076;2022-11-02T07:48:50;11.10;99.90
37594;DHT22;23441;50.856;6.076;2022-11-02T07:51:16;11.10;99.90
37594;DHT22;23441;50.856;6.076;2022-11-02T07:53:42;11.10;99.90
37594;DHT22;23441;50.856;6.076;2022-11-02T07:56:08;11.00;99.90
37594;DHT22;23441;50.856;6.076;2022-11-02T07:58:33;11.10;99.90
37594;DHT22;23441;50.856;6.076;2022-11-02T08:01:00;11.20;99.90
37594;DHT22;23441;50.856;6.076;2022-11-02T08:03:27;11.20;99.90
37594;DHT22;23441;50.856;6.076;2022-11-02T08:05:53;11.30;99.90
37594;DHT22;23441;50.856;6.076;2022-11-02T08:08:21;11.30;99.90
37594;DHT22;23441;50.856;6.076;2022-11-02T08:10:49;11.30;99.90
37594;DHT22;23441;50.856;6.076;2022-11-02T08:13:20;11.30;99.90
37594;DHT22;23441;50.856;6.076;2022-11-02T08:15:50;11.30;99.90
37594;DHT22;23441;50.856;6.076;2022-11-02T08:18:26;11.30;99.90
37594;DHT22;23441;50.856;6.076;2022-11-02T08:20:54;11.30;99.90
37594;DHT22;23441;50.856;6.076;2022-11-02T08:23:20;11.30;99.90
37594;DHT22;23441;50.856;6.076;2022-11-02T08:25:48;11.30;99.90
37594;DHT22;23441;50.856;6.076;2022-11-02T08:28:36;11.40;99.90
37594;DHT22;23441;50.856;6.076;2022-11-02T08:31:05;11.40;99.90
37594;DHT22;23441;50.856;6.076;2022-11-02T08:33:32;11.50;99.90
37594;DHT22;23441;50.856;6.076;2022-11-02T08:36:02;11.50;99.90
37594;DHT22;23441;50.856;6.076;2022-11-02T08:38:29;11.60;99.90
37594;DHT22;23441;50.856;6.076;2022-11-02T08:40:55;11.60;99.90
37594;DHT22;23441;50.856;6.076;2022-11-02T08:43:21;11.60;99.90
37594;DHT22;23441;50.856;6.076;2022-11-02T08:45:46;11.60;99.90
37594;DHT22;23441;50.856;6.076;2022-11-02T08:48:12;11.60;99.90
37594;DHT22;23441;50.856;6.076;2022-11-02T08:50:38;11.60;99.90
37594;DHT22;23441;50.856;6.076;2022-11-02T08:53:05;11.80;99.90
37594;DHT22;23441;50.856;6.076;2022-11-02T08:55:31;11.80;99.90
37594;DHT22;23441;50.856;6.076;2022-11-02T08:57:57;11.80;99.90
37594;DHT22;23441;50.856;6.076;2022-11-02T09:00:26;11.90;99.90
37594;DHT22;23441;50.856;6.076;2022-11-02T09:03:09;11.90;99.90
37594;DHT22;23441;50.856;6.076;2022-11-02T09:05:45;11.90;99.90
37594;DHT22;23441;50.856;6.076;2022-11-02T09:10:38;11.90;99.90
37594;DHT22;23441;50.856;6.076;2022-11-02T09:13:06;12.00;99.90
37594;DHT22;23441;50.856;6.076;2022-11-02T09:15:34;12.00;99.90
37594;DHT22;23441;50.856;6.076;2022-11-02T09:18:01;12.00;99.90
37594;DHT22;23441;50.856;6.076;2022-11-02T09:20:27;12.00;99.90
37594;DHT22;23441;50.856;6.076;2022-11-02T09:22:53;12.10;99.90
37594;DHT22;23441;50.856;6.076;2022-11-02T09:25:19;12.10;99.90
37594;DHT22;23441;50.856;6.076;2022-11-02T09:27:45;12.10;99.90
37594;DHT22;23441;50.856;6.076;2022-11-02T09:30:12;12.10;99.90
37594;DHT22;23441;50.856;6.076;2022-11-02T09:32:38;12.20;99.90
37594;DHT22;23441;50.856;6.076;2022-11-02T09:35:07;12.20;99.90
37594;DHT22;23441;50.856;6.076;2022-11-02T09:37:34;12.30;99.90
37594;DHT22;23441;50.856;6.076;2022-11-02T09:40:00;12.40;99.90
37594;DHT22;23441;50.856;6.076;2022-11-02T09:42:49;12.40;99.90
37594;DHT22;23441;50.856;6.076;2022-11-02T09:45:20;12.40;99.90
37594;DHT22;23441;50.856;6.076;2022-11-02T09:47:56;12.50;99.90
37594;DHT22;23441;50.856;6.076;2022-11-02T09:50:24;12.50;99.90
37594;DHT22;23441;50.856;6.076;2022-11-02T09:53:00;12.60;99.90
37594;DHT22;23441;50.856;6.076;2022-11-02T09:55:33;12.60;99.90
37594;DHT22;23441;50.856;6.076;2022-11-02T09:58:05;12.70;99.90
37594;DHT22;23441;50.856;6.076;2022-11-02T10:00:35;12.70;99.90
37594;DHT22;23441;50.856;6.076;2022-11-02T10:03:21;12.70;99.90
37594;DHT22;23441;50.856;6.076;2022-11-02T10:05:56;12.70;99.90
37594;DHT22;23441;50.856;6.076;2022-11-02T10:13:49;12.70;99.90
37594;DHT22;23441;50.856;6.076;2022-11-02T10:16:24;12.70;99.90
37594;DHT22;23441;50.856;6.076;2022-11-02T10:18:54;12.70;99.90
37594;DHT22;23441;50.856;6.076;2022-11-02T10:21:23;12.80;99.90
37594;DHT22;23441;50.856;6.076;2022-11-02T10:23:52;12.70;99.90
37594;DHT22;23441;50.856;6.076;2022-11-02T10:26:23;12.70;99.90
37594;DHT22;23441;50.856;6.076;2022-11-02T10:30:08;12.80;99.90
37594;DHT22;23441;50.856;6.076;2022-11-02T10:32:09;12.80;99.90
37594;DHT22;23441;50.856;6.076;2022-11-02T10:34:36;12.80;99.90
37594;DHT22;23441;50.856;6.076;2022-11-02T10:42:30;13.00;99.90
37594;DHT22;23441;50.856;6.076;2022-11-02T10:47:29;13.00;99.90
37594;DHT22;23441;50.856;6.076;2022-11-02T10:50:04;13.00;99.90
37594;DHT22;23441;50.856;6.076;2022-11-02T10:52:37;13.00;99.90
37594;DHT22;23441;50.856;6.076;2022-11-02T10:55:04;13.00;99.90
37594;DHT22;23441;50.856;6.076;2022-11-02T10:57:36;13.00;99.90
37594;DHT22;23441;50.856;6.076;2022-11-02T11:00:25;13.10;99.90
37594;DHT22;23441;50.856;6.076;2022-11-02T11:03:06;13.20;99.90
37594;DHT22;23441;50.856;6.076;2022-11-02T11:05:35;13.30;99.90
37594;DHT22;23441;50.856;6.076;2022-11-02T11:08:03;13.40;99.90
37594;DHT22;23441;50.856;6.076;2022-11-02T11:10:35;13.40;99.90
37594;DHT22;23441;50.856;6.076;2022-11-02T11:13:03;13.40;99.90
37594;DHT22;23441;50.856;6.076;2022-11-02T11:15:32;13.50;99.90
37594;DHT22;23441;50.856;6.076;2022-11-02T11:17:58;13.50;99.90
37594;DHT22;23441;50.856;6.076;2022-11-02T11:20:34;13.60;99.90
37594;DHT22;23441;50.856;6.076;2022-11-02T11:23:08;13.70;99.90
37594;DHT22;23441;50.856;6.076;2022-11-02T11:25:35;14.10;99.90
37594;DHT22;23441;50.856;6.076;2022-11-02T11:28:01;14.20;99.90
37594;DHT22;23441;50.856;6.076;2022-11-02T11:30:35;14.70;99.90
37594;DHT22;23441;50.856;6.076;2022-11-02T11:33:04;15.00;99.90
37594;DHT22;23441;50.856;6.076;2022-11-02T11:35:39;15.20;99.90
37594;DHT22;23441;50.856;6.076;2022-11-02T11:38:08;15.30;99.90
37594;DHT22;23441;50.856;6.076;2022-11-02T11:40:43;15.20;99.90
37594;DHT22;23441;50.856;6.076;2022-11-02T11:43:12;15.20;99.90
37594;DHT22;23441;50.856;6.076;2022-11-02T11:46:02;15.20;99.90
37594;DHT22;23441;50.856;6.076;2022-11-02T11:48:38;15.00;99.90
37594;DHT22;23441;50.856;6.076;2022-11-02T11:54:16;15.00;99.90
37594;DHT22;23441;50.856;6.076;2022-11-02T11:56:42;15.00;99.90
37594;DHT22;23441;50.856;6.076;2022-11-02T11:59:27;15.20;99.90
37594;DHT22;23441;50.856;6.076;2022-11-02T12:01:58;15.10;99.90
37594;DHT22;23441;50.856;6.076;2022-11-02T12:04:26;14.90;99.90
37594;DHT22;23441;50.856;6.076;2022-11-02T12:07:05;14.80;99.90
37594;DHT22;23441;50.856;6.076;2022-11-02T12:09:52;14.70;99.90
37594;DHT22;23441;50.856;6.076;2022-11-02T12:29:30;14.80;99.90
37594;DHT22;23441;50.856;6.076;2022-11-02T12:32:22;14.80;99.90
37594;DHT22;23441;50.856;6.076;2022-11-02T12:41:08;14.80;99.90
37594;DHT22;23441;50.856;6.076;2022-11-02T12:43:39;14.90;99.90
37594;DHT22;23441;50.856;6.076;2022-11-02T12:46:38;15.20;99.90
37594;DHT22;23441;50.856;6.076;2022-11-02T12:49:19;15.30;99.90
37594;DHT22;23441;50.856;6.076;2022-11-02T12:54:44;15.20;99.90
37594;DHT22;23441;50.856;6.076;2022-11-02T12:57:14;15.30;99.90
37594;DHT22;23441;50.856;6.076;2022-11-02T12:59:41;15.30;99.90
37594;DHT22;23441;50.856;6.076;2022-11-02T13:02:18;15.10;99.90
37594;DHT22;23441;50.856;6.076;2022-11-02T13:04:50;15.10;99.90
37594;DHT22;23441;50.856;6.076;2022-11-02T13:07:21;15.10;99.90
37594;DHT22;23441;50.856;6.076;2022-11-02T13:12:31;15.30;99.90
37594;DHT22;23441;50.856;6.076;2022-11-02T13:14:59;15.40;99.90
37594;DHT22;23441;50.856;6.076;2022-11-02T13:17:43;15.40;99.90
37594;DHT22;23441;50.856;6.076;2022-11-02T13:20:22;15.40;99.90
37594;DHT22;23441;50.856;6.076;2022-11-02T13:23:00;15.30;99.90
37594;DHT22;23441;50.856;6.076;2022-11-02T13:25:33;15.20;99.90
37594;DHT22;23441;50.856;6.076;2022-11-02T13:28:10;15.00;99.90
37594;DHT22;23441;50.856;6.076;2022-11-02T13:30:38;14.70;99.90
37594;DHT22;23441;50.856;6.076;2022-11-02T13:33:21;14.80;99.90
37594;DHT22;23441;50.856;6.076;2022-11-02T13:35:48;14.70;99.90
37594;DHT22;23441;50.856;6.076;2022-11-02T13:38:34;14.60;99.90
37594;DHT22;23441;50.856;6.076;2022-11-02T13:49:23;14.50;99.90
37594;DHT22;23441;50.856;6.076;2022-11-02T13:52:02;14.50;99.90
37594;DHT22;23441;50.856;6.076;2022-11-02T13:54:35;14.60;99.90
37594;DHT22;23441;50.856;6.076;2022-11-02T13:57:04;14.60;99.90
37594;DHT22;23441;50.856;6.076;2022-11-02T13:59:36;14.50;99.90
37594;DHT22;23441;50.856;6.076;2022-11-02T14:02:05;14.40;99.90
37594;DHT22;23441;50.856;6.076;2022-11-02T14:04:38;14.40;99.90
37594;DHT22;23441;50.856;6.076;2022-11-02T14:07:08;14.40;99.90
37594;DHT22;23441;50.856;6.076;2022-11-02T14:09:44;14.40;99.90
37594;DHT22;23441;50.856;6.076;2022-11-02T14:14:42;14.30;99.90
37594;DHT22;23441;50.856;6.076;2022-11-02T14:17:12;14.30;99.90
37594;DHT22;23441;50.856;6.076;2022-11-02T14:22:17;14.20;99.90
37594;DHT22;23441;50.856;6.076;2022-11-02T14:38:09;13.70;99.90
37594;DHT22;23441;50.856;6.076;2022-11-02T14:48:30;13.50;99.90
37594;DHT22;23441;50.856;6.076;2022-11-02T14:51:16;13.50;99.90
37594;DHT22;23441;50.856;6.076;2022-11-02T14:53:42;13.30;99.90
37594;DHT22;23441;50.856;6.076;2022-11-02T14:56:08;13.30;99.90
37594;DHT22;23441;50.856;6.076;2022-11-02T14:58:49;13.30;99.90
37594;DHT22;23441;50.856;6.076;2022-11-02T15:01:17;13.20;99.90
37594;DHT22;23441;50.856;6.076;2022-11-02T15:03:44;13.20;99.90
37594;DHT22;23441;50.856;6.076;2022-11-02T15:06:22;13.20;99.90
37594;DHT22;23441;50.856;6.076;2022-11-02T15:08:54;13.20;99.90
37594;DHT22;23441;50.856;6.076;2022-11-02T15:24:53;13.10;99.90
37594;DHT22;23441;50.856;6.076;2022-11-02T15:27:20;13.00;99.90
37594;DHT22;23441;50.856;6.076;2022-11-02T15:29:48;12.90;99.90
37594;DHT22;23441;50.856;6.076;2022-11-02T15:32:18;12.90;99.90
37594;DHT22;23441;50.856;6.076;2022-11-02T15:34:48;12.80;99.90
37594;DHT22;23441;50.856;6.076;2022-11-02T15:37:24;12.80;99.90
37594;DHT22;23441;50.856;6.076;2022-11-02T15:39:53;12.70;99.90
37594;DHT22;23441;50.856;6.076;2022-11-02T15:48:11;12.50;99.90
37594;DHT22;23441;50.856;6.076;2022-11-02T15:56:48;12.30;99.90
37594;DHT22;23441;50.856;6.076;2022-11-02T16:02:21;12.10;99.90
37594;DHT22;23441;50.856;6.076;2022-11-02T16:04:51;12.00;99.90
37594;DHT22;23441;50.856;6.076;2022-11-02T16:07:18;11.80;99.90
37594;DHT22;23441;50.856;6.076;2022-11-02T16:09:45;11.60;99.90
37594;DHT22;23441;50.856;6.076;2022-11-02T16:12:28;11.50;99.90
37594;DHT22;23441;50.856;6.076;2022-11-02T16:15:13;11.50;99.90
37594;DHT22;23441;50.856;6.076;2022-11-02T16:17:39;11.40;99.90
37594;DHT22;23441;50.856;6.076;2022-11-02T16:20:24;11.40;99.90
37594;DHT22;23441;50.856;6.076;2022-11-02T16:22:59;11.30;99.90
37594;DHT22;23441;50.856;6.076;2022-11-02T16:25:40;11.30;99.90
37594;DHT22;23441;50.856;6.076;2022-11-02T16:36:05;11.30;99.90
37594;DHT22;23441;50.856;6.076;2022-11-02T16:38:31;11.40;99.90
37594;DHT22;23441;50.856;6.076;2022-11-02T16:40:58;11.30;99.90
37594;DHT22;23441;50.856;6.076;2022-11-02T16:43:25;11.30;99.90
37594;DHT22;23441;50.856;6.076;2022-11-02T16:45:58;11.30;99.90
37594;DHT22;23441;50.856;6.076;2022-11-02T16:48:29;11.10;99.90
37594;DHT22;23441;50.856;6.076;2022-11-02T16:53:32;10.90;99.90
37594;DHT22;23441;50.856;6.076;2022-11-02T16:56:13;10.90;99.90
37594;DHT22;23441;50.856;6.076;2022-11-02T16:58:54;10.90;99.90
37594;DHT22;23441;50.856;6.076;2022-11-02T17:01:25;10.80;99.90
37594;DHT22;23441;50.856;6.076;2022-11-02T17:03:51;10.80;99.90
37594;DHT22;23441;50.856;6.076;2022-11-02T17:06:18;10.70;99.90
37594;DHT22;23441;50.856;6.076;2022-11-02T17:08:50;10.80;99.90
37594;DHT22;23441;50.856;6.076;2022-11-02T17:11:16;10.70;99.90
37594;DHT22;23441;50.856;6.076;2022-11-02T17:13:54;10.80;99.90
37594;DHT22;23441;50.856;6.076;2022-11-02T17:16:21;10.70;99.90
37594;DHT22;23441;50.856;6.076;2022-11-02T17:18:47;10.80;99.90
37594;DHT22;23441;50.856;6.076;2022-11-02T17:23:39;10.70;99.90
37594;DHT22;23441;50.856;6.076;2022-11-02T17:26:30;10.70;99.90
37594;DHT22;23441;50.856;6.076;2022-11-02T17:31:25;10.60;99.90
37594;DHT22;23441;50.856;6.076;2022-11-02T17:33:51;10.70;99.90
37594;DHT22;23441;50.856;6.076;2022-11-02T17:36:17;10.60;99.90
37594;DHT22;23441;50.856;6.076;2022-11-02T17:38:43;10.60;99.90
37594;DHT22;23441;50.856;6.076;2022-11-02T17:41:14;10.60;99.90
37594;DHT22;23441;50.856;6.076;2022-11-02T17:43:59;10.50;99.90
37594;DHT22;23441;50.856;6.076;2022-11-02T17:46:25;10.50;99.90
37594;DHT22;23441;50.856;6.076;2022-11-02T17:48:50;10.50;99.90
37594;DHT22;23441;50.856;6.076;2022-11-02T17:51:19;10.50;99.90
37594;DHT22;23441;50.856;6.076;2022-11-02T17:53:45;10.60;99.90
37594;DHT22;23441;50.856;6.076;2022-11-02T17:56:11;10.50;99.90
37594;DHT22;23441;50.856;6.076;2022-11-02T17:58:37;10.50;99.90
37594;DHT22;23441;50.856;6.076;2022-11-02T18:01:03;10.50;99.90
37594;DHT22;23441;50.856;6.076;2022-11-02T18:03:30;10.40;99.90
37594;DHT22;23441;50.856;6.076;2022-11-02T18:05:56;10.40;99.90
37594;DHT22;23441;50.856;6.076;2022-11-02T18:08:22;10.50;99.90
37594;DHT22;23441;50.856;6.076;2022-11-02T18:10:50;10.40;99.90
37594;DHT22;23441;50.856;6.076;2022-11-02T18:13:19;10.40;99.90
37594;DHT22;23441;50.856;6.076;2022-11-02T18:15:45;10.50;99.90
37594;DHT22;23441;50.856;6.076;2022-11-02T18:18:11;10.50;99.90
37594;DHT22;23441;50.856;6.076;2022-11-02T18:20:38;10.40;99.90
37594;DHT22;23441;50.856;6.076;2022-11-02T18:23:04;10.30;99.90
37594;DHT22;23441;50.856;6.076;2022-11-02T18:25:32;10.40;99.90
37594;DHT22;23441;50.856;6.076;2022-11-02T18:27:59;10.30;99.90
37594;DHT22;23441;50.856;6.076;2022-11-02T18:30:27;10.30;99.90